Time,TemperatureF,DewpointF,PressureIn,WindDirection,WindDirectionDegrees,WindSpeedMPH,WindSpeedGustMPH,Humidity,HourlyPrecipIn,Conditions,Clouds,dailyrainin,SoftwareType,DateUTC
2013-08-14 00:03:00,73.0,49.8,29.82,ESE,113,2.0,4.0,44,0.00,,,0.00,meteobridge,2013-08-14 06:03:00,
2013-08-14 00:08:00,73.8,50.5,29.82,SE,128,0.0,6.0,44,0.00,,,0.00,meteobridge,2013-08-14 06:08:00,
2013-08-14 00:13:00,73.9,50.7,29.82,East,94,2.0,4.9,44,0.00,,,0.00,meteobridge,2013-08-14 06:13:00,
2013-08-14 00:18:00,73.9,50.0,29.82,ENE,74,0.0,4.0,43,0.00,,,0.00,meteobridge,2013-08-14 06:18:00,
2013-08-14 00:23:00,73.8,49.8,29.82,North,355,0.0,4.9,43,0.00,,,0.00,meteobridge,2013-08-14 06:23:00,
2013-08-14 00:28:00,73.2,49.5,29.82,East,94,0.0,2.0,43,0.00,,,0.00,meteobridge,2013-08-14 06:28:00,
2013-08-14 00:33:00,72.7,50.2,29.82,SE,140,2.0,2.0,45,0.00,,,0.00,meteobridge,2013-08-14 06:33:00,
2013-08-14 00:38:00,72.9,50.4,29.83,SE,126,4.9,8.1,45,0.00,,,0.00,meteobridge,2013-08-14 06:38:00,
2013-08-14 00:43:00,73.2,52.3,29.83,South,181,0.9,0.9,48,0.00,,,0.00,meteobridge,2013-08-14 06:43:00,
2013-08-14 00:48:00,73.4,52.5,29.82,ENE,65,2.0,2.9,48,0.00,,,0.00,meteobridge,2013-08-14 06:48:00,
2013-08-14 00:53:00,73.8,52.3,29.82,NNE,25,0.0,2.0,47,0.00,,,0.00,meteobridge,2013-08-14 06:53:00,
2013-08-14 00:58:00,73.6,51.4,29.82,East,82,0.0,0.9,46,0.00,,,0.00,meteobridge,2013-08-14 06:58:00,
2013-08-14 01:04:00,73.6,52.7,29.83,SE,131,4.9,6.0,48,0.00,,,0.00,meteobridge,2013-08-14 07:04:00,
2013-08-14 01:09:00,73.8,54.5,29.82,East,96,6.9,16.1,51,0.00,,,0.00,meteobridge,2013-08-14 07:09:00,
2013-08-14 01:14:00,73.6,55.4,29.82,SSE,151,6.9,12.1,53,0.00,,,0.00,meteobridge,2013-08-14 07:14:00,
2013-08-14 01:19:00,73.2,55.6,29.82,ESE,108,14.1,17.9,54,0.00,,,0.00,meteobridge,2013-08-14 07:19:00,
2013-08-14 01:24:00,72.9,55.2,29.82,ESE,121,4.9,11.0,54,0.00,,,0.00,meteobridge,2013-08-14 07:24:00,
2013-08-14 01:29:00,72.7,55.6,29.81,South,171,4.9,11.0,55,0.00,,,0.00,meteobridge,2013-08-14 07:29:00,
2013-08-14 01:34:00,72.3,55.8,29.82,East,94,8.9,15.0,56,0.00,,,0.00,meteobridge,2013-08-14 07:34:00,
2013-08-14 01:39:00,72.3,55.8,29.81,SSE,148,4.0,19.0,56,0.00,,,0.00,meteobridge,2013-08-14 07:39:00,
2013-08-14 01:44:00,72.3,55.8,29.81,ESE,117,10.1,13.0,56,0.00,,,0.00,meteobridge,2013-08-14 07:44:00,
2013-08-14 01:49:00,72.1,56.1,29.82,SE,128,6.0,10.1,57,0.00,,,0.00,meteobridge,2013-08-14 07:49:00,
2013-08-14 01:54:00,72.0,55.9,29.82,ESE,107,15.0,15.0,57,0.00,,,0.00,meteobridge,2013-08-14 07:54:00,
2013-08-14 01:59:00,72.0,56.3,29.81,NNE,31,6.0,17.0,58,0.00,,,0.00,meteobridge,2013-08-14 07:59:00,
2013-08-14 02:04:00,71.8,56.1,29.82,ESE,118,2.9,8.1,58,0.00,,,0.00,meteobridge,2013-08-14 08:04:00,
2013-08-14 02:09:00,71.6,56.5,29.81,ENE,64,8.1,10.1,59,0.00,,,0.00,meteobridge,2013-08-14 08:09:00,
2013-08-14 02:14:00,71.6,56.5,29.81,East,96,6.9,11.0,59,0.00,,,0.00,meteobridge,2013-08-14 08:14:00,
2013-08-14 02:19:00,71.4,56.3,29.81,East,88,6.9,14.1,59,0.00,,,0.00,meteobridge,2013-08-14 08:19:00,
2013-08-14 02:24:00,71.2,56.7,29.81,SSW,209,2.0,6.0,60,0.00,,,0.00,meteobridge,2013-08-14 08:24:00,
2013-08-14 02:29:00,71.2,56.7,29.81,East,81,10.1,10.1,60,0.00,,,0.00,meteobridge,2013-08-14 08:29:00,
2013-08-14 02:34:00,71.2,56.7,29.81,NE,50,4.9,14.1,60,0.00,,,0.00,meteobridge,2013-08-14 08:34:00,
2013-08-14 02:39:00,71.2,56.1,29.81,East,92,4.9,13.0,59,0.00,,,0.00,meteobridge,2013-08-14 08:39:00,
2013-08-14 02:44:00,71.2,56.1,29.81,SE,142,6.0,10.1,59,0.00,,,0.00,meteobridge,2013-08-14 08:44:00,
2013-08-14 02:49:00,71.2,56.1,29.81,SSE,148,0.9,11.0,59,0.00,,,0.00,meteobridge,2013-08-14 08:49:00,
2013-08-14 02:54:00,71.2,53.8,29.81,NNE,19,0.0,4.9,54,0.00,,,0.00,meteobridge,2013-08-14 08:54:00,
2013-08-14 02:59:00,70.9,51.8,29.81,North,10,0.0,4.0,51,0.00,,,0.00,meteobridge,2013-08-14 08:59:00,
2013-08-14 03:04:00,70.2,51.8,29.81,East,94,0.0,2.9,52,0.00,,,0.00,meteobridge,2013-08-14 09:04:00,
2013-08-14 03:09:00,69.4,51.6,29.82,NNE,18,2.0,4.0,53,0.00,,,0.00,meteobridge,2013-08-14 09:09:00,
2013-08-14 03:14:00,69.3,52.0,29.82,North,0,2.0,4.0,54,0.00,,,0.00,meteobridge,2013-08-14 09:14:00,
2013-08-14 03:19:00,69.3,52.0,29.82,NNW,340,0.9,2.9,54,0.00,,,0.00,meteobridge,2013-08-14 09:19:00,
2013-08-14 03:24:00,68.7,52.0,29.82,NE,50,0.0,0.9,55,0.00,,,0.00,meteobridge,2013-08-14 09:24:00,
2013-08-14 03:29:00,68.2,51.8,29.82,NNE,28,0.9,0.9,56,0.00,,,0.00,meteobridge,2013-08-14 09:29:00,
2013-08-14 03:35:00,67.6,51.8,29.82,NNE,28,0.9,0.9,57,0.00,,,0.00,meteobridge,2013-08-14 09:35:00,
2013-08-14 03:40:00,67.8,53.4,29.82,NNE,28,0.9,2.0,60,0.00,,,0.00,meteobridge,2013-08-14 09:40:00,
2013-08-14 03:45:00,67.8,52.5,29.82,North,0,2.0,4.9,58,0.00,,,0.00,meteobridge,2013-08-14 09:45:00,
2013-08-14 03:50:00,68.7,53.8,29.82,NW,321,0.9,6.0,59,0.00,,,0.00,meteobridge,2013-08-14 09:50:00,
2013-08-14 03:55:00,69.1,53.2,29.82,NW,314,0.0,4.0,57,0.00,,,0.00,meteobridge,2013-08-14 09:55:00,
2013-08-14 04:00:00,69.1,54.1,29.82,WNW,293,0.0,0.0,59,0.00,,,0.00,meteobridge,2013-08-14 10:00:00,
2013-08-14 04:05:00,69.1,54.1,29.82,WNW,293,0.9,0.9,59,0.00,,,0.00,meteobridge,2013-08-14 10:05:00,
2013-08-14 04:10:00,68.4,53.4,29.81,WNW,293,0.0,0.9,59,0.00,,,0.00,meteobridge,2013-08-14 10:10:00,
2013-08-14 04:15:00,67.6,53.2,29.81,WNW,293,0.0,0.0,60,0.00,,,0.00,meteobridge,2013-08-14 10:15:00,
2013-08-14 04:20:00,66.9,53.1,29.82,WNW,292,0.0,0.0,61,0.00,,,0.00,meteobridge,2013-08-14 10:20:00,
2013-08-14 04:25:00,66.6,53.6,29.82,WNW,292,0.0,0.0,63,0.00,,,0.00,meteobridge,2013-08-14 10:25:00,
2013-08-14 04:31:00,66.0,53.4,29.82,WNW,292,0.0,0.0,64,0.00,,,0.00,meteobridge,2013-08-14 10:31:00,
2013-08-14 04:36:00,66.0,54.0,29.82,WNW,293,0.0,0.0,65,0.00,,,0.00,meteobridge,2013-08-14 10:36:00,
2013-08-14 04:41:00,66.0,54.3,29.82,WNW,293,0.0,0.9,66,0.00,,,0.00,meteobridge,2013-08-14 10:41:00,
2013-08-14 04:46:00,65.8,54.5,29.82,WNW,293,0.0,0.0,67,0.00,,,0.00,meteobridge,2013-08-14 10:46:00,
2013-08-14 04:51:00,65.8,54.5,29.82,WNW,293,0.0,0.0,67,0.00,,,0.00,meteobridge,2013-08-14 10:51:00,
2013-08-14 04:56:00,65.8,54.5,29.82,WNW,292,0.0,0.9,67,0.00,,,0.00,meteobridge,2013-08-14 10:56:00,
2013-08-14 05:02:00,65.1,54.3,29.82,WNW,292,0.0,0.0,68,0.00,,,0.00,meteobridge,2013-08-14 11:02:00,
2013-08-14 05:07:00,64.8,54.7,29.82,WNW,293,0.0,0.0,70,0.00,,,0.00,meteobridge,2013-08-14 11:07:00,
2013-08-14 05:12:00,64.2,54.3,29.82,WNW,293,0.0,0.0,70,0.00,,,0.00,meteobridge,2013-08-14 11:12:00,
2013-08-14 05:17:00,64.0,54.5,29.82,WNW,293,0.0,0.0,71,0.00,,,0.00,meteobridge,2013-08-14 11:17:00,
2013-08-14 05:22:00,63.5,54.3,29.82,WNW,293,0.0,0.0,72,0.00,,,0.00,meteobridge,2013-08-14 11:22:00,
2013-08-14 05:27:00,63.3,54.5,29.81,WNW,292,0.0,0.0,73,0.00,,,0.00,meteobridge,2013-08-14 11:27:00,
2013-08-14 05:33:00,63.1,54.7,29.82,WNW,293,0.0,0.0,74,0.00,,,0.00,meteobridge,2013-08-14 11:33:00,
2013-08-14 05:38:00,63.3,54.9,29.82,WNW,293,0.0,0.0,74,0.00,,,0.00,meteobridge,2013-08-14 11:38:00,
2013-08-14 05:43:00,63.5,55.4,29.82,WNW,292,0.0,0.0,75,0.00,,,0.00,meteobridge,2013-08-14 11:43:00,
2013-08-14 05:48:00,63.5,55.4,29.82,WNW,293,0.0,0.0,75,0.00,,,0.00,meteobridge,2013-08-14 11:48:00,
2013-08-14 05:53:00,63.5,55.4,29.82,WNW,292,0.0,0.0,75,0.00,,,0.00,meteobridge,2013-08-14 11:53:00,
2013-08-14 05:58:00,63.3,55.6,29.82,WNW,292,0.0,0.0,76,0.00,,,0.00,meteobridge,2013-08-14 11:58:00,
2013-08-14 06:03:00,63.1,55.4,29.82,WNW,293,0.0,0.0,76,0.00,,,0.00,meteobridge,2013-08-14 12:03:00,
2013-08-14 06:08:00,63.0,55.6,29.81,WNW,292,0.0,0.0,77,0.00,,,0.00,meteobridge,2013-08-14 12:08:00,
2013-08-14 06:13:00,62.8,55.4,29.82,WNW,293,0.0,0.0,77,0.00,,,0.00,meteobridge,2013-08-14 12:13:00,
2013-08-14 06:18:00,62.4,55.4,29.83,WNW,293,0.9,0.9,78,0.00,,,0.00,meteobridge,2013-08-14 12:18:00,
2013-08-14 06:23:00,62.4,55.8,29.83,West,264,0.0,0.9,79,0.00,,,0.00,meteobridge,2013-08-14 12:23:00,
2013-08-14 06:29:00,62.6,55.6,29.83,West,264,0.0,0.0,78,0.00,,,0.00,meteobridge,2013-08-14 12:29:00,
2013-08-14 06:34:00,62.8,55.4,29.83,West,264,0.0,0.0,77,0.00,,,0.00,meteobridge,2013-08-14 12:34:00,
2013-08-14 06:39:00,62.8,55.0,29.84,West,264,0.0,0.0,76,0.00,,,0.00,meteobridge,2013-08-14 12:39:00,
2013-08-14 06:44:00,62.6,55.2,29.83,West,264,0.0,0.9,77,0.00,,,0.00,meteobridge,2013-08-14 12:44:00,
2013-08-14 06:49:00,62.2,55.2,29.84,West,264,0.0,0.0,78,0.00,,,0.00,meteobridge,2013-08-14 12:49:00,
2013-08-14 06:54:00,62.1,55.4,29.84,WSW,246,0.9,0.9,79,0.00,,,0.00,meteobridge,2013-08-14 12:54:00,
2013-08-14 07:00:00,62.1,55.4,29.84,WSW,246,0.0,0.0,79,0.00,,,0.00,meteobridge,2013-08-14 13:00:00,
2013-08-14 07:05:00,62.4,55.4,29.84,WSW,246,0.0,0.0,78,0.00,,,0.00,meteobridge,2013-08-14 13:05:00,
2013-08-14 07:10:00,62.6,55.6,29.84,WSW,246,0.0,0.9,78,0.00,,,0.00,meteobridge,2013-08-14 13:10:00,
2013-08-14 07:15:00,63.0,55.6,29.84,WSW,246,0.0,0.9,77,0.00,,,0.00,meteobridge,2013-08-14 13:15:00,
2013-08-14 07:20:00,63.5,55.8,29.85,WSW,246,0.0,0.0,76,0.00,,,0.00,meteobridge,2013-08-14 13:20:00,
2013-08-14 07:25:00,63.9,55.8,29.85,WSW,246,0.0,0.0,75,0.00,,,0.00,meteobridge,2013-08-14 13:25:00,
2013-08-14 07:31:00,64.2,55.8,29.85,WSW,246,0.0,0.0,74,0.00,,,0.00,meteobridge,2013-08-14 13:31:00,
2013-08-14 07:36:00,64.6,56.5,29.85,WSW,246,0.0,0.0,75,0.00,,,0.00,meteobridge,2013-08-14 13:36:00,
2013-08-14 07:41:00,64.4,56.3,29.85,WSW,246,0.0,0.9,75,0.00,,,0.00,meteobridge,2013-08-14 13:41:00,
2013-08-14 07:46:00,64.9,56.5,29.86,WSW,246,0.0,0.9,74,0.00,,,0.00,meteobridge,2013-08-14 13:46:00,
2013-08-14 07:51:00,65.7,56.3,29.86,WSW,246,2.0,2.0,72,0.00,,,0.00,meteobridge,2013-08-14 13:51:00,
2013-08-14 07:56:00,66.6,56.5,29.85,SW,225,2.0,2.9,70,0.00,,,0.00,meteobridge,2013-08-14 13:56:00,
2013-08-14 08:01:00,67.5,57.0,29.85,SW,225,0.0,0.0,69,0.00,,,0.00,meteobridge,2013-08-14 14:01:00,
2013-08-14 08:07:00,68.5,57.2,29.86,WSW,238,0.0,0.9,67,0.00,,,0.00,meteobridge,2013-08-14 14:07:00,
2013-08-14 08:12:00,69.8,57.6,29.86,WSW,238,0.0,0.9,65,0.00,,,0.00,meteobridge,2013-08-14 14:12:00,
2013-08-14 08:17:00,70.9,57.7,29.86,WSW,238,0.0,0.9,63,0.00,,,0.00,meteobridge,2013-08-14 14:17:00,
2013-08-14 08:22:00,71.4,57.2,29.86,NW,305,2.9,2.9,61,0.00,,,0.00,meteobridge,2013-08-14 14:22:00,
2013-08-14 08:27:00,71.1,58.3,29.86,NW,304,0.0,0.9,64,0.00,,,0.00,meteobridge,2013-08-14 14:27:00,
2013-08-14 08:32:00,70.9,58.1,29.85,WSW,257,0.9,2.9,64,0.00,,,0.00,meteobridge,2013-08-14 14:32:00,
2013-08-14 08:37:00,70.5,57.7,29.86,WNW,303,0.0,2.0,64,0.00,,,0.00,meteobridge,2013-08-14 14:37:00,
2013-08-14 08:42:00,70.2,58.3,29.85,WNW,303,0.9,0.9,66,0.00,,,0.00,meteobridge,2013-08-14 14:42:00,
2013-08-14 08:48:00,70.0,57.7,29.86,WNW,303,0.0,0.0,65,0.00,,,0.00,meteobridge,2013-08-14 14:48:00,
2013-08-14 08:53:00,70.0,58.1,29.86,WNW,303,0.0,0.9,66,0.00,,,0.00,meteobridge,2013-08-14 14:53:00,
2013-08-14 08:58:00,69.8,58.3,29.86,NW,305,0.0,0.0,67,0.00,,,0.00,meteobridge,2013-08-14 14:58:00,
2013-08-14 09:03:00,71.2,58.5,29.86,WNW,300,0.9,2.0,64,0.00,,,0.00,meteobridge,2013-08-14 15:03:00,
2013-08-14 09:09:00,72.9,58.6,29.86,WNW,282,0.9,0.9,61,0.00,,,0.00,meteobridge,2013-08-14 15:09:00,
2013-08-14 09:14:00,73.8,58.1,29.86,WNW,298,0.0,0.9,58,0.00,,,0.00,meteobridge,2013-08-14 15:14:00,
2013-08-14 09:19:00,74.3,57.6,29.86,NW,304,0.0,0.9,56,0.00,,,0.00,meteobridge,2013-08-14 15:19:00,
2013-08-14 09:24:00,74.5,58.3,29.86,NNW,336,0.9,2.9,57,0.00,,,0.00,meteobridge,2013-08-14 15:24:00,
2013-08-14 09:30:00,74.8,57.6,29.86,NNW,348,2.9,2.9,55,0.00,,,0.00,meteobridge,2013-08-14 15:30:00,
2013-08-14 09:35:00,75.6,57.7,29.86,North,0,0.0,4.0,54,0.00,,,0.00,meteobridge,2013-08-14 15:35:00,
2013-08-14 09:40:00,75.6,56.7,29.86,SW,215,0.0,2.0,52,0.00,,,0.00,meteobridge,2013-08-14 15:40:00,
2013-08-14 09:45:00,76.3,57.9,29.86,SSE,153,2.9,2.9,53,0.00,,,0.00,meteobridge,2013-08-14 15:45:00,
2013-08-14 09:50:00,76.3,55.8,29.86,SSE,155,0.9,0.9,49,0.00,,,0.00,meteobridge,2013-08-14 15:50:00,
2013-08-14 09:55:00,77.0,55.8,29.86,East,96,0.9,2.9,48,0.00,,,0.00,meteobridge,2013-08-14 15:55:00,
2013-08-14 10:00:00,78.1,56.8,29.86,ESE,119,0.9,2.9,48,0.00,,,0.00,meteobridge,2013-08-14 16:00:00,
2013-08-14 10:05:00,78.4,55.9,29.86,NNE,19,0.0,2.9,46,0.00,,,0.00,meteobridge,2013-08-14 16:05:00,
2013-08-14 10:11:00,78.4,55.9,29.86,NE,47,0.9,2.9,46,0.00,,,0.00,meteobridge,2013-08-14 16:11:00,
2013-08-14 10:16:00,79.0,55.8,29.87,NNE,16,2.0,2.9,45,0.00,,,0.00,meteobridge,2013-08-14 16:16:00,
2013-08-14 10:21:00,78.6,56.1,29.87,North,355,0.9,4.0,46,0.00,,,0.00,meteobridge,2013-08-14 16:21:00,
2013-08-14 10:26:00,78.6,55.6,29.87,WNW,286,0.0,4.9,45,0.00,,,0.00,meteobridge,2013-08-14 16:26:00,
2013-08-14 10:31:00,78.4,57.2,29.87,NNW,329,0.9,2.0,48,0.00,,,0.00,meteobridge,2013-08-14 16:31:00,
2013-08-14 10:36:00,79.2,55.9,29.87,NNW,346,0.9,4.0,45,0.00,,,0.00,meteobridge,2013-08-14 16:36:00,
2013-08-14 10:41:00,79.2,55.9,29.87,NE,45,0.9,4.0,45,0.00,,,0.00,meteobridge,2013-08-14 16:41:00,
2013-08-14 10:46:00,80.6,57.4,29.86,NNE,13,4.9,6.9,45,0.00,,,0.00,meteobridge,2013-08-14 16:46:00,
2013-08-14 10:51:00,80.8,56.8,29.86,NNE,22,2.0,2.9,44,0.00,,,0.00,meteobridge,2013-08-14 16:51:00,
2013-08-14 10:56:00,79.7,57.0,29.86,North,0,2.0,4.0,46,0.00,,,0.00,meteobridge,2013-08-14 16:56:00,
2013-08-14 11:01:00,79.9,56.7,29.86,NNE,13,2.0,2.9,45,0.00,,,0.00,meteobridge,2013-08-14 17:01:00,
2013-08-14 11:06:00,79.5,56.3,29.86,NE,39,0.9,4.9,45,0.00,,,0.00,meteobridge,2013-08-14 17:06:00,
2013-08-14 11:11:00,79.3,56.8,29.86,NE,34,0.9,0.9,46,0.00,,,0.00,meteobridge,2013-08-14 17:11:00,
2013-08-14 11:16:00,79.3,56.8,29.85,North,0,4.9,6.0,46,0.00,,,0.00,meteobridge,2013-08-14 17:16:00,
2013-08-14 11:21:00,79.0,56.5,29.86,North,5,0.9,2.9,46,0.00,,,0.00,meteobridge,2013-08-14 17:21:00,
2013-08-14 11:26:00,78.4,55.9,29.85,NNW,348,0.0,0.9,46,0.00,,,0.00,meteobridge,2013-08-14 17:26:00,
2013-08-14 11:31:00,78.3,56.3,29.85,East,90,0.0,0.9,47,0.00,,,0.00,meteobridge,2013-08-14 17:31:00,
2013-08-14 11:36:00,78.1,56.3,29.85,East,90,0.0,0.9,47,0.00,,,0.00,meteobridge,2013-08-14 17:36:00,
2013-08-14 11:41:00,78.3,57.0,29.85,SSE,159,0.0,0.9,48,0.00,,,0.00,meteobridge,2013-08-14 17:41:00,
2013-08-14 11:46:00,78.8,56.3,29.85,South,171,0.0,0.9,46,0.00,,,0.00,meteobridge,2013-08-14 17:46:00,
2013-08-14 11:51:00,79.0,56.5,29.85,West,279,0.9,2.0,46,0.00,,,0.00,meteobridge,2013-08-14 17:51:00,
2013-08-14 11:57:00,79.0,56.5,29.85,SW,226,0.0,0.9,46,0.00,,,0.00,meteobridge,2013-08-14 17:57:00,
2013-08-14 12:02:00,79.2,56.7,29.85,SW,224,0.9,2.9,46,0.00,,,0.00,meteobridge,2013-08-14 18:02:00,
2013-08-14 12:07:00,79.9,56.7,29.84,SW,215,0.0,4.0,45,0.00,,,0.00,meteobridge,2013-08-14 18:07:00,
2013-08-14 12:12:00,81.0,56.3,29.84,WSW,240,0.0,4.0,43,0.00,,,0.00,meteobridge,2013-08-14 18:12:00,
2013-08-14 12:17:00,81.9,55.9,29.84,NE,47,0.0,2.9,41,0.00,,,0.00,meteobridge,2013-08-14 18:17:00,
2013-08-14 12:22:00,82.9,56.1,29.83,SSE,158,4.0,6.0,40,0.00,,,0.00,meteobridge,2013-08-14 18:22:00,
2013-08-14 12:27:00,83.7,56.1,29.83,SSE,163,4.0,6.0,39,0.00,,,0.00,meteobridge,2013-08-14 18:27:00,
2013-08-14 12:32:00,82.8,55.2,29.83,SSE,150,6.0,6.9,39,0.00,,,0.00,meteobridge,2013-08-14 18:32:00,
2013-08-14 12:38:00,83.1,56.3,29.82,SSE,148,2.9,6.9,40,0.00,,,0.00,meteobridge,2013-08-14 18:38:00,
2013-08-14 12:43:00,84.6,55.4,29.81,SE,144,2.9,4.9,37,0.00,,,0.00,meteobridge,2013-08-14 18:43:00,
2013-08-14 12:48:00,84.7,54.9,29.81,ESE,121,0.0,4.9,36,0.00,,,0.00,meteobridge,2013-08-14 18:48:00,
2013-08-14 12:53:00,85.3,55.2,29.81,SW,224,2.9,6.0,36,0.00,,,0.00,meteobridge,2013-08-14 18:53:00,
2013-08-14 12:58:00,84.9,55.8,29.81,SW,219,4.0,6.9,37,0.00,,,0.00,meteobridge,2013-08-14 18:58:00,
2013-08-14 13:03:00,84.7,55.6,29.81,WNW,298,2.0,4.9,37,0.00,,,0.00,meteobridge,2013-08-14 19:03:00,
2013-08-14 13:08:00,86.0,55.2,29.81,SW,234,4.9,6.0,35,0.00,,,0.00,meteobridge,2013-08-14 19:08:00,
2013-08-14 13:13:00,85.5,54.0,29.81,WSW,246,2.9,6.9,34,0.00,,,0.00,meteobridge,2013-08-14 19:13:00,
2013-08-14 13:18:00,85.8,54.1,29.81,SW,219,4.9,4.9,34,0.00,,,0.00,meteobridge,2013-08-14 19:18:00,
2013-08-14 13:23:00,85.6,53.2,29.80,SSE,151,0.9,6.9,33,0.00,,,0.00,meteobridge,2013-08-14 19:23:00,
2013-08-14 13:28:00,85.6,52.3,29.80,South,190,2.0,6.0,32,0.00,,,0.00,meteobridge,2013-08-14 19:28:00,
2013-08-14 13:33:00,85.8,52.5,29.80,SW,223,6.0,6.9,32,0.00,,,0.00,meteobridge,2013-08-14 19:33:00,
2013-08-14 13:38:00,85.8,52.5,29.80,WNW,286,0.0,6.0,32,0.00,,,0.00,meteobridge,2013-08-14 19:38:00,
2013-08-14 13:43:00,86.4,52.2,29.80,NW,306,0.9,2.9,31,0.00,,,0.00,meteobridge,2013-08-14 19:43:00,
2013-08-14 13:48:00,86.5,51.4,29.79,SW,219,2.9,4.9,30,0.00,,,0.00,meteobridge,2013-08-14 19:48:00,
2013-08-14 13:53:00,86.2,51.1,29.79,SSW,202,2.9,4.9,30,0.00,,,0.00,meteobridge,2013-08-14 19:53:00,
2013-08-14 13:58:00,85.6,50.7,29.79,NW,310,2.9,2.9,30,0.00,,,0.00,meteobridge,2013-08-14 19:58:00,
2013-08-14 14:03:00,87.3,52.0,29.78,North,5,0.9,2.9,30,0.00,,,0.00,meteobridge,2013-08-14 20:03:00,
2013-08-14 14:08:00,88.0,53.6,29.78,East,86,0.0,2.9,31,0.00,,,0.00,meteobridge,2013-08-14 20:08:00,
2013-08-14 14:14:00,88.3,52.0,29.78,WNW,300,0.9,2.0,29,0.00,,,0.00,meteobridge,2013-08-14 20:14:00,
2013-08-14 14:19:00,88.0,53.6,29.78,SSE,153,4.0,6.0,31,0.00,,,0.00,meteobridge,2013-08-14 20:19:00,
2013-08-14 14:24:00,88.2,53.8,29.78,SW,226,2.0,6.9,31,0.00,,,0.00,meteobridge,2013-08-14 20:24:00,
2013-08-14 14:29:00,88.3,53.8,29.78,WSW,238,0.9,4.9,31,0.00,,,0.00,meteobridge,2013-08-14 20:29:00,
2013-08-14 14:34:00,88.9,53.4,29.77,WSW,242,4.0,6.9,30,0.00,,,0.00,meteobridge,2013-08-14 20:34:00,
2013-08-14 14:39:00,88.9,53.4,29.77,South,188,4.0,6.9,30,0.00,,,0.00,meteobridge,2013-08-14 20:39:00,
2013-08-14 14:44:00,88.2,52.0,29.77,South,182,2.0,2.9,29,0.00,,,0.00,meteobridge,2013-08-14 20:44:00,
2013-08-14 14:49:00,86.9,50.9,29.77,SW,215,2.0,4.0,29,0.00,,,0.00,meteobridge,2013-08-14 20:49:00,
2013-08-14 14:54:00,86.4,49.5,29.77,West,277,0.0,0.9,28,0.00,,,0.00,meteobridge,2013-08-14 20:54:00,
2013-08-14 14:59:00,87.1,48.0,29.77,SW,233,0.0,2.9,26,0.00,,,0.00,meteobridge,2013-08-14 20:59:00,
2013-08-14 15:04:00,87.6,47.5,29.76,West,277,0.9,0.9,25,0.00,,,0.00,meteobridge,2013-08-14 21:04:00,
2013-08-14 15:09:00,90.0,46.0,29.76,WSW,253,0.0,2.9,22,0.00,,,0.00,meteobridge,2013-08-14 21:09:00,
2013-08-14 15:14:00,88.9,45.1,29.76,WSW,257,0.0,4.9,22,0.00,,,0.00,meteobridge,2013-08-14 21:14:00,
2013-08-14 15:19:00,89.2,46.6,29.76,South,189,0.0,4.0,23,0.00,,,0.00,meteobridge,2013-08-14 21:19:00,
2013-08-14 15:24:00,89.2,47.7,29.76,SSW,213,2.0,4.0,24,0.00,,,0.00,meteobridge,2013-08-14 21:24:00,
2013-08-14 15:29:00,90.3,49.6,29.76,North,355,0.0,4.0,25,0.00,,,0.00,meteobridge,2013-08-14 21:29:00,
2013-08-14 15:34:00,90.1,48.6,29.76,ESE,114,2.0,2.0,24,0.00,,,0.00,meteobridge,2013-08-14 21:34:00,
2013-08-14 15:39:00,90.1,45.0,29.77,North,350,4.0,4.0,21,0.00,,,0.00,meteobridge,2013-08-14 21:39:00,
2013-08-14 15:45:00,88.5,44.8,29.77,West,281,2.0,6.0,22,0.00,,,0.00,meteobridge,2013-08-14 21:45:00,
2013-08-14 15:50:00,87.6,42.8,29.78,NNW,335,8.1,12.1,21,0.00,,,0.00,meteobridge,2013-08-14 21:50:00,
2013-08-14 15:55:00,83.1,46.6,29.78,NNW,346,8.1,19.9,28,0.00,,,0.00,meteobridge,2013-08-14 21:55:00,
2013-08-14 16:00:00,80.6,47.1,29.78,NNE,12,17.0,17.0,31,0.00,,,0.00,meteobridge,2013-08-14 22:00:00,
2013-08-14 16:05:00,81.1,47.7,29.78,NNW,344,19.0,19.0,31,0.00,,,0.00,meteobridge,2013-08-14 22:05:00,
2013-08-14 16:10:00,82.4,46.9,29.79,East,88,6.9,21.0,29,0.00,,,0.00,meteobridge,2013-08-14 22:10:00,
2013-08-14 16:15:00,82.9,47.5,29.78,North,5,10.1,21.9,29,0.00,,,0.00,meteobridge,2013-08-14 22:15:00,
2013-08-14 16:20:00,84.0,46.4,29.78,NNW,342,11.0,15.0,27,0.00,,,0.00,meteobridge,2013-08-14 22:20:00,
2013-08-14 16:25:00,84.9,47.1,29.78,NE,34,2.9,8.9,27,0.00,,,0.00,meteobridge,2013-08-14 22:25:00,
2013-08-14 16:30:00,85.8,46.9,29.78,North,355,8.1,13.0,26,0.00,,,0.00,meteobridge,2013-08-14 22:30:00,
2013-08-14 16:35:00,85.8,46.9,29.78,NE,44,4.0,11.0,26,0.00,,,0.00,meteobridge,2013-08-14 22:35:00,
2013-08-14 16:40:00,86.7,44.4,29.78,NE,55,4.0,6.9,23,0.00,,,0.00,meteobridge,2013-08-14 22:40:00,
2013-08-14 16:45:00,87.3,45.0,29.77,NW,323,6.0,8.9,23,0.00,,,0.00,meteobridge,2013-08-14 22:45:00,
2013-08-14 16:50:00,88.0,44.4,29.77,NNE,17,2.9,6.9,22,0.00,,,0.00,meteobridge,2013-08-14 22:50:00,
2013-08-14 16:55:00,88.2,42.1,29.77,North,5,2.9,6.0,20,0.00,,,0.00,meteobridge,2013-08-14 22:55:00,
2013-08-14 17:00:00,87.4,40.1,29.76,WSW,253,2.0,4.0,19,0.00,,,0.00,meteobridge,2013-08-14 23:00:00,
2013-08-14 17:05:00,86.7,42.1,29.76,SSW,209,4.0,6.9,21,0.00,,,0.00,meteobridge,2013-08-14 23:05:00,
2013-08-14 17:11:00,87.1,42.4,29.77,WSW,237,0.9,4.9,21,0.00,,,0.00,meteobridge,2013-08-14 23:11:00,
2013-08-14 17:16:00,87.4,42.8,29.77,South,188,2.0,2.0,21,0.00,,,0.00,meteobridge,2013-08-14 23:16:00,
2013-08-14 17:21:00,87.4,41.4,29.76,WSW,248,2.0,4.0,20,0.00,,,0.00,meteobridge,2013-08-14 23:21:00,
2013-08-14 17:26:00,87.3,41.4,29.76,SSE,150,2.9,6.0,20,0.00,,,0.00,meteobridge,2013-08-14 23:26:00,
2013-08-14 17:31:00,87.4,41.4,29.76,SW,224,4.9,6.9,20,0.00,,,0.00,meteobridge,2013-08-14 23:31:00,
2013-08-14 17:36:00,87.3,41.4,29.76,SW,225,0.9,2.9,20,0.00,,,0.00,meteobridge,2013-08-14 23:36:00,
2013-08-14 17:41:00,87.3,39.9,29.75,SW,221,2.9,4.9,19,0.00,,,0.00,meteobridge,2013-08-14 23:41:00,
2013-08-14 17:46:00,87.6,41.5,29.75,West,266,0.9,4.0,20,0.00,,,0.00,meteobridge,2013-08-14 23:46:00,
2013-08-14 17:51:00,86.9,39.7,29.75,West,264,0.0,2.9,19,0.00,,,0.00,meteobridge,2013-08-14 23:51:00,
2013-08-14 17:56:00,87.6,40.3,29.75,NNE,28,0.9,4.9,19,0.00,,,0.00,meteobridge,2013-08-14 23:56:00,
2013-08-14 18:01:00,88.0,40.6,29.75,NW,319,2.0,2.0,19,0.00,,,0.00,meteobridge,2013-08-15 00:01:00,
2013-08-14 18:06:00,87.6,41.5,29.74,SE,138,2.0,2.0,20,0.00,,,0.00,meteobridge,2013-08-15 00:06:00,
2013-08-14 18:11:00,87.3,45.0,29.74,South,176,2.0,6.0,23,0.00,,,0.00,meteobridge,2013-08-15 00:11:00,
2013-08-14 18:16:00,86.7,44.4,29.74,SSE,158,4.0,6.0,23,0.00,,,0.00,meteobridge,2013-08-15 00:16:00,
2013-08-14 18:21:00,86.4,44.2,29.74,SSW,205,4.0,4.9,23,0.00,,,0.00,meteobridge,2013-08-15 00:21:00,
2013-08-14 18:26:00,86.2,44.1,29.74,South,170,2.0,4.9,23,0.00,,,0.00,meteobridge,2013-08-15 00:26:00,
2013-08-14 18:31:00,85.6,43.5,29.73,SSE,161,0.9,4.0,23,0.00,,,0.00,meteobridge,2013-08-15 00:31:00,
2013-08-14 18:36:00,86.2,44.1,29.73,South,176,2.0,4.9,23,0.00,,,0.00,meteobridge,2013-08-15 00:36:00,
2013-08-14 18:41:00,86.2,45.1,29.73,SSE,157,4.9,4.9,24,0.00,,,0.00,meteobridge,2013-08-15 00:41:00,
2013-08-14 18:46:00,85.8,45.9,29.73,SW,223,2.0,6.9,25,0.00,,,0.00,meteobridge,2013-08-15 00:46:00,
2013-08-14 18:51:00,85.5,45.7,29.73,SE,145,4.0,6.0,25,0.00,,,0.00,meteobridge,2013-08-15 00:51:00,
2013-08-14 18:56:00,85.3,46.6,29.73,South,191,2.9,6.0,26,0.00,,,0.00,meteobridge,2013-08-15 00:56:00,
2013-08-14 19:01:00,84.9,46.2,29.73,South,171,2.9,4.9,26,0.00,,,0.00,meteobridge,2013-08-15 01:01:00,
2013-08-14 19:06:00,84.7,47.1,29.73,SSE,153,2.0,4.0,27,0.00,,,0.00,meteobridge,2013-08-15 01:06:00,
2013-08-14 19:11:00,84.6,45.9,29.73,SE,145,0.9,4.0,26,0.00,,,0.00,meteobridge,2013-08-15 01:11:00,
2013-08-14 19:16:00,84.2,46.6,29.73,SSW,204,4.0,4.0,27,0.00,,,0.00,meteobridge,2013-08-15 01:16:00,
2013-08-14 19:22:00,83.8,46.2,29.73,SSW,210,0.9,4.0,27,0.00,,,0.00,meteobridge,2013-08-15 01:22:00,
2013-08-14 19:27:00,83.7,47.1,29.73,SSW,209,2.9,4.9,28,0.00,,,0.00,meteobridge,2013-08-15 01:27:00,
2013-08-14 19:32:00,83.5,46.9,29.73,SSW,198,2.0,6.9,28,0.00,,,0.00,meteobridge,2013-08-15 01:32:00,
2013-08-14 19:37:00,83.1,46.6,29.74,SSE,159,0.9,4.0,28,0.00,,,0.00,meteobridge,2013-08-15 01:37:00,
2013-08-14 19:42:00,82.8,46.4,29.74,SSE,164,0.9,2.9,28,0.00,,,0.00,meteobridge,2013-08-15 01:42:00,
2013-08-14 19:47:00,82.4,46.9,29.74,SW,220,0.0,4.0,29,0.00,,,0.00,meteobridge,2013-08-15 01:47:00,
2013-08-14 19:52:00,82.0,46.6,29.74,SSE,166,2.9,2.9,29,0.00,,,0.00,meteobridge,2013-08-15 01:52:00,
2013-08-14 19:57:00,81.9,47.3,29.74,South,173,0.0,2.9,30,0.00,,,0.00,meteobridge,2013-08-15 01:57:00,
2013-08-14 20:02:00,81.5,47.1,29.75,SSW,198,0.0,2.9,30,0.00,,,0.00,meteobridge,2013-08-15 02:02:00,
2013-08-14 20:07:00,81.1,46.8,29.75,South,180,0.0,4.0,30,0.00,,,0.00,meteobridge,2013-08-15 02:07:00,
2013-08-14 20:12:00,81.0,47.5,29.74,South,172,0.0,4.0,31,0.00,,,0.00,meteobridge,2013-08-15 02:12:00,
2013-08-14 20:18:00,80.8,47.3,29.75,SSE,164,0.0,2.0,31,0.00,,,0.00,meteobridge,2013-08-15 02:18:00,
2013-08-14 20:23:00,80.4,47.8,29.74,SSE,164,0.0,0.9,32,0.00,,,0.00,meteobridge,2013-08-15 02:23:00,
2013-08-14 20:28:00,80.1,47.5,29.75,SSE,164,0.0,0.9,32,0.00,,,0.00,meteobridge,2013-08-15 02:28:00,
2013-08-14 20:33:00,79.7,48.0,29.75,SSE,164,0.0,0.9,33,0.00,,,0.00,meteobridge,2013-08-15 02:33:00,
2013-08-14 20:39:00,79.3,47.7,29.75,SSE,164,0.0,0.0,33,0.00,,,0.00,meteobridge,2013-08-15 02:39:00,
2013-08-14 20:44:00,78.8,48.0,29.75,SSE,164,0.0,0.0,34,0.00,,,0.00,meteobridge,2013-08-15 02:44:00,
2013-08-14 20:49:00,78.1,48.9,29.75,SSE,164,0.0,0.0,36,0.00,,,0.00,meteobridge,2013-08-15 02:49:00,
2013-08-14 20:54:00,77.7,48.6,29.76,SSE,164,0.0,0.0,36,0.00,,,0.00,meteobridge,2013-08-15 02:54:00,
2013-08-14 20:59:00,77.2,48.9,29.76,SSE,164,0.0,0.0,37,0.00,,,0.00,meteobridge,2013-08-15 02:59:00,
2013-08-14 21:05:00,76.8,48.6,29.77,SSE,164,0.0,0.0,37,0.00,,,0.00,meteobridge,2013-08-15 03:05:00,
2013-08-14 21:10:00,77.0,48.7,29.77,SSE,160,0.0,2.0,37,0.00,,,0.00,meteobridge,2013-08-15 03:10:00,
2013-08-14 21:15:00,76.8,48.6,29.77,SSE,158,0.9,2.0,37,0.00,,,0.00,meteobridge,2013-08-15 03:15:00,
2013-08-14 21:20:00,76.8,48.6,29.78,SSE,167,0.0,0.9,37,0.00,,,0.00,meteobridge,2013-08-15 03:20:00,
2013-08-14 21:25:00,76.6,48.4,29.78,SSE,167,0.9,2.0,37,0.00,,,0.00,meteobridge,2013-08-15 03:25:00,
2013-08-14 21:30:00,76.5,48.2,29.78,SSE,166,0.9,0.9,37,0.00,,,0.00,meteobridge,2013-08-15 03:30:00,
2013-08-14 21:35:00,76.3,48.7,29.78,SSE,166,0.0,0.0,38,0.00,,,0.00,meteobridge,2013-08-15 03:35:00,
2013-08-14 21:41:00,75.9,48.6,29.78,SSE,166,0.0,0.0,38,0.00,,,0.00,meteobridge,2013-08-15 03:41:00,
2013-08-14 21:46:00,75.6,48.2,29.78,SSE,166,0.0,0.0,38,0.00,,,0.00,meteobridge,2013-08-15 03:46:00,
2013-08-14 21:51:00,75.6,48.2,29.78,SSE,166,0.0,0.0,38,0.00,,,0.00,meteobridge,2013-08-15 03:51:00,
2013-08-14 21:56:00,75.0,49.1,29.78,SSE,166,0.0,0.0,40,0.00,,,0.00,meteobridge,2013-08-15 03:56:00,
2013-08-14 22:01:00,74.5,49.3,29.79,SSE,166,0.0,0.9,41,0.00,,,0.00,meteobridge,2013-08-15 04:01:00,
2013-08-14 22:02:00,74.3,49.6,29.79,SSE,166,0.0,0.0,42,0.00,,,0.00,meteobridge,2013-08-15 04:02:00,
2013-08-14 22:06:00,73.8,49.8,29.79,SSE,166,0.0,0.0,43,0.00,,,0.00,meteobridge,2013-08-15 04:06:00,
2013-08-14 22:12:00,73.6,49.6,29.79,SSE,166,0.0,0.0,43,0.00,,,0.00,meteobridge,2013-08-15 04:12:00,
2013-08-14 22:17:00,73.4,49.5,29.79,SSE,166,0.0,0.0,43,0.00,,,0.00,meteobridge,2013-08-15 04:17:00,
2013-08-14 22:22:00,73.2,49.5,29.79,SSE,166,0.0,0.0,43,0.00,,,0.00,meteobridge,2013-08-15 04:22:00,
2013-08-14 22:27:00,73.0,49.3,29.80,South,181,0.0,0.9,43,0.00,,,0.00,meteobridge,2013-08-15 04:27:00,
2013-08-14 22:32:00,73.4,49.5,29.79,SW,221,0.0,0.0,43,0.00,,,0.00,meteobridge,2013-08-15 04:32:00,
2013-08-14 22:37:00,73.8,49.8,29.80,SW,221,0.0,0.9,43,0.00,,,0.00,meteobridge,2013-08-15 04:37:00,
2013-08-14 22:43:00,73.6,50.4,29.79,SW,223,0.0,0.0,44,0.00,,,0.00,meteobridge,2013-08-15 04:43:00,
2013-08-14 22:48:00,73.4,50.7,29.80,SW,232,0.0,2.0,45,0.00,,,0.00,meteobridge,2013-08-15 04:48:00,
2013-08-14 22:53:00,73.2,50.5,29.80,SSW,196,0.0,2.0,45,0.00,,,0.00,meteobridge,2013-08-15 04:53:00,
2013-08-14 22:58:00,73.0,50.4,29.80,SW,229,0.9,0.9,45,0.00,,,0.00,meteobridge,2013-08-15 04:58:00,
2013-08-14 23:03:00,73.0,50.4,29.81,South,169,0.9,2.0,45,0.00,,,0.00,meteobridge,2013-08-15 05:03:00,
2013-08-14 23:08:00,72.9,50.4,29.81,South,181,0.9,4.0,45,0.00,,,0.00,meteobridge,2013-08-15 05:08:00,
2013-08-14 23:13:00,72.9,50.4,29.81,SSE,148,2.0,2.9,45,0.00,,,0.00,meteobridge,2013-08-15 05:13:00,
2013-08-14 23:18:00,72.7,50.2,29.82,SSE,149,0.0,0.9,45,0.00,,,0.00,meteobridge,2013-08-15 05:18:00,
2013-08-14 23:23:00,72.3,49.8,29.82,South,188,0.0,0.0,45,0.00,,,0.00,meteobridge,2013-08-15 05:23:00,
2013-08-14 23:28:00,71.8,49.8,29.82,SW,226,0.0,0.9,46,0.00,,,0.00,meteobridge,2013-08-15 05:28:00,
2013-08-14 23:33:00,71.6,50.4,29.82,SW,226,2.9,2.9,47,0.00,,,0.00,meteobridge,2013-08-15 05:33:00,
2013-08-14 23:39:00,71.4,50.2,29.82,SSW,209,0.0,2.9,47,0.00,,,0.00,meteobridge,2013-08-15 05:39:00,
2013-08-14 23:43:00,71.4,50.2,29.82,SSW,209,0.9,0.9,47,0.00,,,0.00,meteobridge,2013-08-15 05:43:00,
2013-08-14 23:48:00,71.2,50.0,29.82,SSW,210,2.0,2.0,47,0.00,,,0.00,meteobridge,2013-08-15 05:48:00,
2013-08-14 23:54:00,70.9,50.2,29.82,SSW,211,0.0,0.0,48,0.00,,,0.00,meteobridge,2013-08-15 05:54:00,
2013-08-14 23:59:00,70.5,49.8,29.82,SSW,211,0.0,0.0,48,0.00,,,0.00,meteobridge,2013-08-15 05:59:00,